Auburn, MI (48611)

1:40 AM EST on December 27, 2014 (GMT -0500)
APRSWXNET Auburn MI US | Change Station
CLOSE
Current Station
Personal Weather Station
Location: Auburn, MI
Elevation: 617 ft
Nearby Weather Stations

Elev 617 ft 43.60 °N, 84.10 °W | Updated 40 minutes ago

Overcast
Overcast
36 °F
Feels Like 36 °F
N
0
Wind Variable Wind from NNE
Gusts 0.0 mph

Today
High -- | Low -- °F
--% Chance of Precip.
Yesterday
High -- | Low -- °F
Precip. -- in
8:08 AM 5:06 PM
Waxing Crescent, 33% visible
Pressure 30.08 in
Visibility 10.0 miles
Clouds Overcast 3900 ft
Windchill 36 °F
Dew Point 35 °F
Humidity 97%
Rainfall 0.00 in
Snow Depth Not available.
UV 0 out of 12
Pollen .10 out of 12
Air Quality Not available.
Flu Activity Not available.
METAR KMBS 270553Z 20006KT 10SM OVC039 05/02 A3006 RMK AO2 SLP184 T00500022 10056 20011 58006

More Conditions Fewer Conditions

Pressure 30.08 in
Visibility 10.0 miles
Clouds Overcast 3900 ft
Windchill 36 °F
Dew Point 35 °F
Humidity 97%
Rainfall 0.00 in
Snow Depth Not available.
UV 0 out of 12
Pollen .10 out of 12
Air Quality Not available.
Flu Activity Not available.
METAR KMBS 270553Z 20006KT 10SM OVC039 05/02 A3006 RMK AO2 SLP184 T00500022 10056 20011 58006

More Conditions Fewer Conditions

10-Day Weather Forecast

Almanac

Astronomy

Dec. 27, 2014 Rise Set
Actual Time
Civil Twilight
Nautical Twilight
Astronomical Twilight
Moon
Length of Visible Light
Length of Day
Tomorrow will be .
, % of the Moon is Illuminated

Today's Extremes

State Highs State Lows

Community

WunderPhotos

Upload Photos

1,780,863 photos uploaded!

WunderBlogs® & News

Nearby

Air Quality

  Air Quality AQ Index Pollutant
Not available.

Snow Depth

Station Depth Elevation

Earthquake Activity

City Distance Mag. Time & Date
Minimum magnitude displayed is 2.5.

Coastal Water Temperatures

Place Temperature

Nearby Weather Stations